Time;durP1;ratioP1;P1;durP2;ratioP2;P2;SDS_P1;SDS_P2;PMS_P1;PMS_P2;Temp;Humidity;BMP_temperature;BMP_pressure;BME280_temperature;BME280_humidity;BME280_pressure;Samples;Min_cycle;Max_cycle;Signal;HPM_P1;HPM_P2
2021/05/24 08:09:21;;;;;;;1.83;0.80;;;17.40;89.20;;;;;;6226449;22;20022;-87
2021/05/24 08:11:52;;;;;;;1.52;0.70;;;17.80;86.00;;;;;;6184819;23;20009;-88
2021/05/24 08:14:24;;;;;;;1.67;0.80;;;18.10;82.30;;;;;;6230738;23;20012;-87
2021/05/24 08:16:52;;;;;;;1.75;0.63;;;18.30;80.10;;;;;;6160258;23;20076;-88
2021/05/24 08:19:22;;;;;;;3.90;0.90;;;18.50;78.20;;;;;;6237460;23;20012;-89
2021/05/24 08:21:54;;;;;;;1.42;0.70;;;18.40;75.90;;;;;;6210633;23;20016;-87
2021/05/24 08:24:22;;;;;;;1.77;0.65;;;18.50;75.70;;;;;;6204933;23;20005;-89
2021/05/24 08:26:50;;;;;;;1.95;0.68;;;18.50;74.80;;;;;;6201737;23;20024;-89
2021/05/24 08:29:18;;;;;;;2.13;0.82;;;18.30;74.10;;;;;;6153416;23;20037;-88
2021/05/24 08:31:48;;;;;;;1.95;0.73;;;18.50;74.30;;;;;;6200632;23;20041;-87
2021/05/24 08:34:15;;;;;;;1.67;0.60;;;18.60;73.70;;;;;;6204204;23;20045;-89
2021/05/24 08:36:45;;;;;;;2.28;0.70;;;18.60;73.00;;;;;;6188582;23;20019;-94
2021/05/24 08:39:13;;;;;;;1.63;0.52;;;18.60;73.20;;;;;;6208733;23;20019;-92
2021/05/24 08:41:46;;;;;;;3.20;0.70;;;18.90;73.00;;;;;;6188879;23;20004;-94
2021/05/24 08:44:14;;;;;;;1.95;0.70;;;19.00;72.00;;;;;;6215401;23;20019;-89
2021/05/24 08:46:43;;;;;;;2.15;0.60;;;18.90;72.30;;;;;;6188160;23;20004;-94
2021/05/24 08:49:13;;;;;;;1.38;0.68;;;18.80;70.90;;;;;;6213590;23;20017;-94
2021/05/24 08:51:40;;;;;;;3.30;0.85;;;19.00;71.50;;;;;;6187367;23;20008;-95
2021/05/24 08:54:08;;;;;;;2.00;0.60;;;19.10;70.40;;;;;;6189713;23;20015;-96
2021/05/24 08:56:38;;;;;;;1.23;0.70;;;19.10;69.90;;;;;;6188633;23;20017;-96
2021/05/24 08:59:08;;;;;;;2.55;0.80;;;19.10;69.40;;;;;;6207403;23;20012;-96
2021/05/24 09:01:35;;;;;;;1.67;0.60;;;19.30;68.50;;;;;;6212789;23;20012;-94
2021/05/24 09:04:05;;;;;;;5.53;0.88;;;19.60;67.30;;;;;;6210547;23;20019;-93
2021/05/24 09:06:38;;;;;;;1.73;0.68;;;19.80;66.50;;;;;;6189001;23;20012;-93
2021/05/24 09:09:13;;;;;;;2.50;1.00;;;20.00;64.40;;;;;;6161539;23;20027;-93
2021/05/24 09:11:44;;;;;;;3.03;0.75;;;19.90;64.30;;;;;;6190843;23;20004;-94
2021/05/24 09:14:20;;;;;;;3.13;0.70;;;19.80;65.00;;;;;;6172388;22;19996;-92
2021/05/24 09:16:55;;;;;;;2.13;0.60;;;19.60;65.00;;;;;;6222331;22;19996;-94
2021/05/24 09:19:27;;;;;;;2.22;0.88;;;19.40;64.60;;;;;;6222144;23;20039;-94
2021/05/24 09:21:57;;;;;;;2.42;0.77;;;19.20;65.00;;;;;;6172978;22;19997;-94
2021/05/24 09:24:31;;;;;;;2.40;0.63;;;19.00;64.90;;;;;;6248317;22;19993;-94
2021/05/24 09:27:06;;;;;;;2.92;0.70;;;18.90;64.60;;;;;;6219229;23;20019;-95
2021/05/24 09:29:46;;;;;;;7.18;1.15;;;18.70;63.70;;;;;;6218839;23;20009;-93
2021/05/24 09:32:16;;;;;;;2.17;0.70;;;18.70;64.10;;;;;;6194500;23;20004;-95
2021/05/24 09:34:46;;;;;;;1.45;0.70;;;18.70;64.50;;;;;;6215566;23;20012;-92
2021/05/24 09:37:17;;;;;;;2.95;1.02;;;18.70;65.20;;;;;;6194107;23;20013;-95
2021/05/24 09:39:44;;;;;;;;;;;18.60;64.60;;;;;;6195836;23;20009;-95
2021/05/24 09:42:16;;;;;;;2.17;0.80;;;18.40;63.10;;;;;;6221194;23;19927;-95
2021/05/24 09:44:46;;;;;;;1.67;0.80;;;18.40;63.10;;;;;;6170158;23;20005;-96
2021/05/24 09:47:14;;;;;;;2.15;0.70;;;18.20;62.80;;;;;;6219498;23;20016;-96
2021/05/24 09:49:45;;;;;;;1.95;0.63;;;18.20;62.90;;;;;;6220703;23;20009;-94
2021/05/24 09:52:12;;;;;;;1.20;0.60;;;18.30;62.90;;;;;;6196741;22;20008;-95
2021/05/24 09:54:40;;;;;;;3.70;0.57;;;18.30;63.70;;;;;;6196441;22;20031;-95
2021/05/24 09:57:14;;;;;;;3.28;0.80;;;18.50;63.70;;;;;;6207377;22;20005;-95
2021/05/24 09:59:51;;;;;;;1.95;0.80;;;18.70;62.00;;;;;;6202863;22;20016;-92
2021/05/24 10:02:26;;;;;;;3.22;0.90;;;18.70;61.60;;;;;;6215193;22;20012;-94
2021/05/24 10:05:01;;;;;;;0.75;0.50;;;18.80;60.90;;;;;;6185334;23;20012;-93
2021/05/24 10:07:28;;;;;;;1.23;0.60;;;18.90;59.90;;;;;;6183539;23;20009;-95
2021/05/24 10:09:57;;;;;;;1.45;0.50;;;19.10;60.60;;;;;;6191163;23;20024;-96
2021/05/24 10:12:25;;;;;;;5.93;1.00;;;19.40;58.70;;;;;;6195066;23;20012;-96
2021/05/24 10:14:55;;;;;;;3.22;0.88;;;19.70;58.40;;;;;;6243795;23;20008;-96
2021/05/24 10:17:22;;;;;;;2.08;0.70;;;20.50;57.60;;;;;;6190131;23;20012;-94
2021/05/24 10:19:50;;;;;;;1.15;0.60;;;21.30;55.90;;;;;;6241460;23;20012;-95
2021/05/24 10:22:20;;;;;;;3.28;0.68;;;22.10;53.30;;;;;;6246011;23;20000;-94
2021/05/24 10:24:47;;;;;;;2.17;0.70;;;23.00;51.90;;;;;;6194787;23;20009;-96
2021/05/24 10:27:31;;;;;;;1.73;0.77;;;23.80;50.40;;;;;;6194223;23;19996;-94
2021/05/24 10:30:03;;;;;;;1.58;0.50;;;24.00;48.20;;;;;;6192988;23;20016;-96
2021/05/24 10:32:35;;;;;;;5.65;1.15;;;24.30;46.80;;;;;;6232572;23;20016;-92
2021/05/24 10:35:24;;;;;;;2.03;0.80;;;24.50;44.90;;;;;;6158120;23;20012;-94
2021/05/24 10:37:52;;;;;;;3.92;0.63;;;24.50;45.10;;;;;;6206075;23;20009;-89
2021/05/24 10:40:25;;;;;;;2.25;0.70;;;24.80;44.10;;;;;;6213961;23;20005;-93
2021/05/24 10:43:11;;;;;;;1.83;0.60;;;25.30;43.10;;;;;;6219089;23;20016;-92
2021/05/24 10:45:39;;;;;;;2.97;0.80;;;26.20;41.90;;;;;;6194175;23;20000;-89
2021/05/24 10:48:07;;;;;;;;;;;26.80;41.00;;;;;;6211982;23;20229;-93
2021/05/24 10:50:35;;;;;;;2.53;0.63;;;27.40;39.10;;;;;;6189717;23;19919;-94
2021/05/24 10:53:22;;;;;;;1.65;0.60;;;28.10;38.10;;;;;;6236610;23;20012;-96
2021/05/24 10:55:53;;;;;;;1.98;0.60;;;26.10;38.60;;;;;;6215532;23;20009;-96
2021/05/24 10:58:21;;;;;;;1.70;0.70;;;25.80;40.60;;;;;;6193250;23;20040;-93
2021/05/24 11:00:53;;;;;;;3.45;0.70;;;26.90;39.60;;;;;;6210564;23;20241;-93
2021/05/24 11:03:21;;;;;;;1.63;0.60;;;28.30;38.40;;;;;;6208234;23;20264;-95
2021/05/24 11:06:08;;;;;;;2.22;0.60;;;29.80;36.40;;;;;;6183005;23;20016;-92
2021/05/24 11:08:41;;;;;;;2.45;1.00;;;30.60;35.50;;;;;;6207690;23;20015;-92
2021/05/24 11:11:18;;;;;;;1.52;0.80;;;31.10;34.50;;;;;;6179559;23;20027;-92
2021/05/24 11:13:55;;;;;;;2.38;0.65;;;31.60;34.20;;;;;;6206671;23;20008;-93
2021/05/24 11:16:24;;;;;;;4.30;0.80;;;32.10;33.90;;;;;;6209024;23;20019;-92
2021/05/24 11:19:07;;;;;;;2.00;0.68;;;32.70;32.60;;;;;;6195654;23;20013;-93
2021/05/24 11:21:36;;;;;;;2.17;0.82;;;33.40;31.70;;;;;;6195913;23;20011;-90
2021/05/24 11:24:35;;;;;;;1.08;0.50;;;33.60;31.60;;;;;;6246010;23;20004;-92
2021/05/24 11:27:10;;;;;;;1.05;0.60;;;33.70;30.80;;;;;;6196466;23;20000;-91
2021/05/24 11:29:47;;;;;;;1.90;0.70;;;34.30;30.40;;;;;;6197278;23;19993;-92
2021/05/24 11:32:20;;;;;;;1.33;0.50;;;34.90;30.50;;;;;;6209116;23;20013;-92
2021/05/24 11:34:51;;;;;;;2.10;1.00;;;32.60;30.10;;;;;;6209957;23;20379;-93
2021/05/24 11:37:21;;;;;;;1.52;0.50;;;29.20;33.60;;;;;;6181045;23;20008;-88
2021/05/24 11:39:50;;;;;;;1.90;0.70;;;28.60;34.20;;;;;;6181982;23;20037;-91
2021/05/24 11:42:24;;;;;;;2.03;0.50;;;29.50;33.90;;;;;;6180096;23;20017;-91
2021/05/24 11:44:53;;;;;;;2.50;0.80;;;29.30;32.20;;;;;;6179869;23;20023;-91
2021/05/24 11:47:25;;;;;;;2.20;0.90;;;28.70;33.00;;;;;;6178650;23;20017;-92
2021/05/24 11:49:57;;;;;;;1.08;0.60;;;28.40;33.60;;;;;;6204323;23;20331;-92
2021/05/24 11:52:26;;;;;;;3.45;1.27;;;28.00;34.50;;;;;;6203058;23;20141;-92
2021/05/24 11:54:53;;;;;;;2.10;0.90;;;28.70;34.80;;;;;;6181266;23;20008;-91
2021/05/24 11:57:25;;;;;;;1.33;0.53;;;30.40;33.40;;;;;;6203840;23;20013;-91
2021/05/24 11:59:54;;;;;;;2.08;0.60;;;32.00;32.20;;;;;;6179902;23;20294;-90
2021/05/24 12:02:23;;;;;;;2.55;0.60;;;31.40;30.40;;;;;;6212233;23;20016;-90
2021/05/24 12:04:54;;;;;;;1.08;0.60;;;31.20;30.00;;;;;;6213454;23;20019;-91
2021/05/24 12:07:28;;;;;;;1.08;0.47;;;32.30;29.80;;;;;;6240598;23;20308;-90
2021/05/24 12:09:57;;;;;;;1.98;0.80;;;33.40;30.00;;;;;;6183404;23;20076;-91
2021/05/24 12:12:30;;;;;;;1.63;0.63;;;33.70;29.50;;;;;;6206515;23;20060;-91
2021/05/24 12:15:05;;;;;;;2.38;0.80;;;33.90;29.40;;;;;;6230796;23;20019;-92
2021/05/24 12:17:38;;;;;;;2.15;0.70;;;33.90;29.40;;;;;;6183018;23;20012;-92
2021/05/24 12:20:09;;;;;;;2.53;0.60;;;34.40;28.80;;;;;;6201090;23;20052;-92
2021/05/24 12:22:39;;;;;;;1.55;0.60;;;34.90;28.50;;;;;;6207470;23;20015;-93
2021/05/24 12:25:11;;;;;;;1.13;0.70;;;34.70;28.40;;;;;;6216206;23;20012;-92
2021/05/24 12:27:41;;;;;;;1.33;0.70;;;33.90;28.70;;;;;;6193522;23;20008;-93
2021/05/24 12:30:16;;;;;;;2.05;0.93;;;34.40;28.60;;;;;;6244751;23;20016;-92
2021/05/24 12:32:47;;;;;;;1.52;0.40;;;34.30;28.60;;;;;;6220625;23;20016;-92
2021/05/24 12:35:25;;;;;;;2.10;0.73;;;34.70;28.00;;;;;;6236041;23;20016;-91
2021/05/24 12:37:57;;;;;;;3.22;0.60;;;34.10;28.70;;;;;;6191847;23;20023;-91
2021/05/24 12:40:27;;;;;;;1.85;0.60;;;33.20;29.00;;;;;;6234742;23;20020;-92
2021/05/24 12:42:59;;;;;;;1.58;0.50;;;33.10;29.00;;;;;;6207638;23;20012;-93
2021/05/24 12:45:47;;;;;;;2.47;0.70;;;33.40;29.20;;;;;;6188910;23;20017;-92
2021/05/24 12:48:20;;;;;;;1.85;0.70;;;33.60;28.70;;;;;;6185659;23;20020;-93
2021/05/24 12:53:32;;;;;;;1.40;0.50;;;34.90;28.60;;;;;;6206203;23;20004;-92
2021/05/24 12:56:09;;;;;;;1.05;0.57;;;35.70;28.00;;;;;;6158269;23;20012;-92
2021/05/24 12:58:39;;;;;;;1.48;0.50;;;35.40;27.10;;;;;;6183641;23;20026;-92
2021/05/24 13:01:21;;;;;;;1.73;0.60;;;35.30;27.30;;;;;;6232446;23;20012;-92
2021/05/24 13:03:55;;;;;;;1.15;0.52;;;34.60;27.20;;;;;;6180819;23;20019;-91
2021/05/24 13:06:24;;;;;;;1.55;0.70;;;33.90;27.30;;;;;;6207787;23;20009;-90
2021/05/24 13:08:53;;;;;;;;;;;33.60;27.80;;;;;;6185459;23;20016;-93
2021/05/24 13:11:23;;;;;;;1.73;0.57;;;33.40;27.70;;;;;;6238254;23;19927;-92
2021/05/24 13:14:04;;;;;;;0.65;0.43;;;32.90;28.30;;;;;;6192539;23;20019;-91
2021/05/24 13:16:36;;;;;;;2.42;0.70;;;32.80;28.30;;;;;;6162410;23;20019;-92
2021/05/24 13:30:30;;;;;;;1.23;0.50;;;30.40;29.50;;;;;;6219082;23;20011;-90
2021/05/24 13:32:59;;;;;;;2.50;0.60;;;29.40;29.80;;;;;;6219176;23;20012;-90
2021/05/24 13:35:32;;;;;;;1.17;0.73;;;28.70;30.20;;;;;;6238923;23;20019;-90
2021/05/24 13:38:12;;;;;;;1.27;0.55;;;27.80;31.10;;;;;;6211510;23;20060;-89
2021/05/24 13:40:41;;;;;;;1.17;0.60;;;27.10;31.70;;;;;;6235190;23;20009;-90
2021/05/24 13:43:10;;;;;;;1.13;0.52;;;26.40;32.30;;;;;;6184326;23;20023;-89
2021/05/24 13:45:38;;;;;;;1.67;0.60;;;25.80;33.10;;;;;;6185766;23;20017;-89
2021/05/24 13:48:08;;;;;;;1.58;0.82;;;25.50;33.70;;;;;;6209898;23;20027;-89
2021/05/24 13:50:35;;;;;;;1.20;0.60;;;25.20;35.10;;;;;;6187607;23;20016;-88
2021/05/24 13:53:05;;;;;;;2.88;1.00;;;25.00;35.10;;;;;;6187781;23;20008;-88
2021/05/24 13:55:32;;;;;;;1.40;0.50;;;24.90;35.30;;;;;;6208829;23;20008;-90
2021/05/24 13:58:03;;;;;;;1.45;0.80;;;25.40;35.40;;;;;;6210523;23;20016;-89
2021/05/24 14:00:30;;;;;;;2.78;0.90;;;26.20;34.50;;;;;;6187294;23;20031;-89
2021/05/24 14:02:59;;;;;;;1.77;0.90;;;26.80;33.70;;;;;;6183999;23;20012;-89
2021/05/24 14:05:26;;;;;;;1.77;0.77;;;27.30;33.60;;;;;;6182165;23;20020;-89
2021/05/24 14:07:56;;;;;;;2.17;0.90;;;28.90;32.50;;;;;;6237514;23;20012;-90
2021/05/24 14:10:24;;;;;;;3.03;1.10;;;30.70;31.50;;;;;;6207180;23;20015;-90
2021/05/24 14:12:52;;;;;;;2.65;0.60;;;31.90;30.30;;;;;;6188545;23;20061;-92
2021/05/24 14:15:19;;;;;;;3.85;1.20;;;32.70;30.20;;;;;;6237882;23;20008;-90
2021/05/24 14:17:47;;;;;;;1.35;0.70;;;33.70;29.40;;;;;;6191370;23;20023;-88
2021/05/24 14:20:15;;;;;;;2.20;0.80;;;32.80;28.70;;;;;;6217447;23;20001;-91
2021/05/24 14:22:44;;;;;;;2.27;0.80;;;33.40;29.10;;;;;;6189004;23;20015;-91
2021/05/24 14:25:14;;;;;;;1.23;0.60;;;34.10;28.40;;;;;;6190812;23;20060;-90
2021/05/24 14:27:43;;;;;;;1.85;0.90;;;34.40;28.10;;;;;;6215578;23;20016;-89
2021/05/24 14:30:12;;;;;;;1.90;1.00;;;35.30;28.60;;;;;;6162044;23;20016;-91
2021/05/24 14:32:40;;;;;;;2.63;0.93;;;35.10;28.70;;;;;;6187046;23;20034;-91
2021/05/24 14:35:09;;;;;;;2.35;0.85;;;35.30;28.60;;;;;;6186952;23;20069;-91
2021/05/24 14:37:36;;;;;;;;;;;35.60;27.90;;;;;;6206524;23;20013;-91
2021/05/24 14:40:06;;;;;;;1.90;0.75;;;34.40;28.50;;;;;;6206071;23;19959;-92
2021/05/24 14:42:34;;;;;;;6.50;2.95;;;34.40;28.70;;;;;;6188168;23;20037;-91
2021/05/24 14:45:09;;;;;;;6.70;1.10;;;34.60;28.50;;;;;;6210078;23;20016;-92
2021/05/24 14:47:38;;;;;;;3.65;1.20;;;35.20;28.30;;;;;;6184992;23;20012;-92
2021/05/24 14:50:09;;;;;;;1.50;0.63;;;34.90;28.20;;;;;;6233917;23;20012;-91
2021/05/24 14:52:38;;;;;;;1.70;0.80;;;34.70;27.90;;;;;;6191758;23;20019;-91
2021/05/24 14:55:07;;;;;;;1.67;0.67;;;34.90;28.40;;;;;;6192653;23;20008;-91
2021/05/24 14:57:38;;;;;;;2.53;0.90;;;34.10;28.40;;;;;;6208403;23;20008;-92
2021/05/24 15:00:09;;;;;;;2.55;0.80;;;34.40;28.70;;;;;;6182350;23;20028;-94
2021/05/24 15:02:40;;;;;;;5.15;1.02;;;35.20;28.20;;;;;;6156459;23;20342;-91
2021/05/24 15:05:08;;;;;;;3.42;1.00;;;35.00;27.90;;;;;;6204834;23;20009;-92
2021/05/24 15:07:36;;;;;;;;;;;34.70;28.30;;;;;;6206241;23;20039;-90
2021/05/24 15:10:04;;;;;;;3.42;0.98;;;33.80;28.60;;;;;;6206489;23;19927;-91
2021/05/24 15:12:32;;;;;;;5.68;2.28;;;32.90;29.20;;;;;;6190037;23;20004;-91
2021/05/24 15:15:01;;;;;;;4.75;1.70;;;32.90;29.60;;;;;;6219461;23;20000;-93
2021/05/24 15:17:30;;;;;;;3.95;1.10;;;32.80;29.40;;;;;;6244729;23;20016;-94
2021/05/24 15:20:01;;;;;;;1.52;0.88;;;32.60;29.60;;;;;;6219501;23;20005;-92
2021/05/24 15:22:33;;;;;;;4.15;1.00;;;32.10;29.50;;;;;;6207974;23;20076;-93
2021/05/24 15:25:03;;;;;;;3.45;0.88;;;31.40;30.00;;;;;;6210580;23;20012;-92
2021/05/24 15:27:31;;;;;;;2.22;0.73;;;31.90;29.50;;;;;;6183406;23;20016;-91
2021/05/24 15:30:01;;;;;;;3.53;1.08;;;31.80;29.20;;;;;;6205566;23;20012;-91
2021/05/24 15:32:28;;;;;;;4.22;0.80;;;31.70;29.70;;;;;;6219434;23;20013;-91
2021/05/24 15:35:00;;;;;;;9.20;1.10;;;32.00;29.60;;;;;;6229484;23;20008;-90
2021/05/24 15:37:30;;;;;;;1.70;0.70;;;32.00;29.50;;;;;;6179607;23;20016;-90
2021/05/24 15:40:00;;;;;;;2.60;0.90;;;31.60;29.50;;;;;;6182908;23;20040;-90
2021/05/24 15:42:35;;;;;;;1.55;0.80;;;31.00;29.90;;;;;;6183095;23;20016;-91
2021/05/24 15:45:06;;;;;;;3.78;0.90;;;31.00;29.90;;;;;;6180084;23;20265;-92
2021/05/24 15:47:35;;;;;;;2.35;0.90;;;30.50;30.30;;;;;;6179267;23;20048;-92
2021/05/24 15:50:05;;;;;;;1.75;0.80;;;29.90;30.50;;;;;;6179821;23;20008;-91
2021/05/24 15:52:33;;;;;;;2.80;0.90;;;29.60;30.70;;;;;;6204987;23;20019;-92
2021/05/24 15:55:09;;;;;;;2.97;1.25;;;29.20;31.10;;;;;;6180609;23;20023;-92
2021/05/24 15:57:38;;;;;;;1.67;1.00;;;29.00;31.60;;;;;;6201855;23;20008;-91
2021/05/24 16:00:10;;;;;;;3.33;0.90;;;29.20;31.80;;;;;;6208770;23;20331;-91
2021/05/24 16:02:44;;;;;;;3.75;1.23;;;29.50;31.30;;;;;;6213158;23;20004;-91
2021/05/24 16:05:14;;;;;;;5.78;1.48;;;28.60;32.10;;;;;;6218159;23;20043;-92
2021/05/24 16:07:42;;;;;;;1.75;0.75;;;28.40;33.20;;;;;;6242294;23;20072;-90
2021/05/24 16:10:13;;;;;;;3.90;0.90;;;29.20;32.50;;;;;;6216435;23;20319;-91
2021/05/24 16:12:42;;;;;;;2.88;1.20;;;30.00;31.80;;;;;;6231499;23;20225;-91
2021/05/24 16:15:12;;;;;;;3.50;1.27;;;29.90;31.80;;;;;;6203698;23;20051;-90
2021/05/24 16:17:40;;;;;;;2.72;1.17;;;29.50;32.70;;;;;;6203350;23;20023;-91
2021/05/24 16:20:10;;;;;;;3.10;1.67;;;29.20;33.00;;;;;;6202663;23;20085;-91
2021/05/24 16:22:42;;;;;;;2.90;1.00;;;29.00;33.30;;;;;;6205161;23;20209;-92
2021/05/24 16:25:32;;;;;;;2.78;1.02;;;28.90;33.60;;;;;;6182571;23;20015;-92
2021/05/24 16:28:05;;;;;;;6.22;0.95;;;28.80;33.80;;;;;;6217898;23;20012;-91
2021/05/24 16:30:33;;;;;;;;;;;28.00;34.40;;;;;;6205500;23;20020;-90
2021/05/24 16:33:01;;;;;;;2.60;1.00;;;27.30;35.60;;;;;;6208441;23;19919;-90
2021/05/24 16:35:35;;;;;;;3.42;1.10;;;26.40;36.90;;;;;;6207190;23;20012;-91
2021/05/24 16:38:33;;;;;;;4.70;1.23;;;26.00;37.80;;;;;;6189228;23;20004;-90
2021/05/24 16:41:02;;;;;;;4.53;1.27;;;26.00;38.70;;;;;;6200376;23;20040;-92
2021/05/24 16:43:30;;;;;;;2.88;1.00;;;26.60;37.70;;;;;;6183154;23;20009;-92
2021/05/24 16:45:57;;;;;;;2.45;1.13;;;27.20;37.20;;;;;;6181926;23;20015;-93
2021/05/24 16:48:25;;;;;;;4.93;1.00;;;27.40;36.80;;;;;;6182641;23;20009;-94
2021/05/24 16:50:59;;;;;;;4.13;1.42;;;27.30;37.20;;;;;;6184735;23;20016;-93
2021/05/24 16:53:32;;;;;;;5.38;1.17;;;27.00;37.50;;;;;;6218388;23;20016;-92
2021/05/24 16:59:22;;;;;;;;;;;;;;;;;;;;;
2021/05/24 17:02:41;;;;;;;;;;;;;;;;;;;;;
2021/05/24 17:06:08;;;;;;;;;;;;;;;;;;;;;
2021/05/24 17:09:51;;;;;;;;;;;;;;;;;;;;;
2021/05/24 17:12:56;;;;;;;2.80;1.15;;;24.70;41.50;;;;;;6011320;23;20018;-88
2021/05/24 17:18:53;;;;;;;2.42;1.02;;;24.30;42.00;;;;;;6086035;23;20013;-90
2021/05/24 17:21:47;;;;;;;5.45;1.35;;;24.10;42.60;;;;;;6142286;23;20049;-91
2021/05/24 17:24:15;;;;;;;2.55;1.17;;;23.80;43.20;;;;;;6091590;23;20009;-91
2021/05/24 17:26:42;;;;;;;2.58;1.30;;;23.70;44.00;;;;;;6113065;23;20341;-90
2021/05/24 17:29:13;;;;;;;3.00;1.30;;;23.50;44.00;;;;;;6172045;23;20044;-90
2021/05/24 17:31:44;;;;;;;3.10;1.42;;;23.40;44.50;;;;;;6210190;23;20008;-90
2021/05/24 17:34:12;;;;;;;3.88;1.38;;;23.20;45.00;;;;;;6268121;23;20047;-91
2021/05/24 17:36:39;;;;;;;3.97;1.25;;;23.00;45.20;;;;;;6240522;23;20009;-91
2021/05/24 17:39:31;;;;;;;2.22;1.10;;;22.80;45.80;;;;;;6236858;23;20039;-91
2021/05/24 17:41:59;;;;;;;3.33;1.27;;;22.60;46.40;;;;;;6234907;23;20011;-91
2021/05/24 17:44:31;;;;;;;3.55;1.50;;;22.50;46.80;;;;;;6210944;23;20004;-92
2021/05/24 17:47:02;;;;;;;6.93;1.73;;;22.40;47.20;;;;;;6261974;23;20015;-93
2021/05/24 17:49:32;;;;;;;4.55;1.55;;;22.30;47.30;;;;;;6244416;23;20016;-92
2021/05/24 17:52:00;;;;;;;5.30;1.58;;;22.20;47.60;;;;;;6268611;23;20012;-91
2021/05/24 17:54:30;;;;;;;3.63;1.13;;;22.20;47.90;;;;;;6217318;23;20018;-89
2021/05/24 17:56:58;;;;;;;3.92;1.50;;;22.20;48.20;;;;;;6213145;23;20236;-92
2021/05/24 18:00:30;;;;;;;3.33;1.33;;;22.20;48.30;;;;;;6185399;23;20240;-94
2021/05/24 18:03:02;;;;;;;5.82;1.75;;;22.10;48.70;;;;;;6188253;23;20043;-90
2021/05/24 18:05:38;;;;;;;2.58;1.40;;;22.10;49.50;;;;;;6167664;23;20009;-91
2021/05/24 18:08:08;;;;;;;3.67;1.60;;;22.00;49.60;;;;;;6232581;23;20015;-92
2021/05/24 18:10:39;;;;;;;6.07;3.70;;;21.90;49.90;;;;;;6184716;23;20018;-92
2021/05/24 18:13:10;;;;;;;6.35;2.38;;;21.90;50.30;;;;;;6209494;23;20019;-94
2021/05/24 18:15:42;;;;;;;3.13;1.10;;;21.80;50.80;;;;;;6187504;23;20065;-93
2021/05/24 18:18:15;;;;;;;2.28;1.10;;;21.80;50.40;;;;;;6215665;23;20009;-94
2021/05/24 18:20:45;;;;;;;3.30;1.40;;;21.60;50.70;;;;;;6218525;23;20009;-94
2021/05/24 18:23:16;;;;;;;3.05;1.27;;;21.50;51.10;;;;;;6193321;23;20004;-92
2021/05/24 18:25:56;;;;;;;3.88;1.40;;;21.50;51.10;;;;;;6195796;23;20007;-93
2021/05/24 18:28:26;;;;;;;7.85;1.77;;;21.50;51.70;;;;;;6242499;23;20017;-92
2021/05/24 18:30:58;;;;;;;8.50;2.05;;;21.30;52.20;;;;;;6209029;23;20008;-93
2021/05/24 18:33:46;;;;;;;3.90;1.30;;;21.20;52.60;;;;;;6233221;23;20024;-93
2021/05/24 18:36:18;;;;;;;5.75;1.50;;;21.10;53.00;;;;;;6206184;23;20015;-92
2021/05/24 18:38:46;;;;;;;3.05;1.23;;;21.10;53.10;;;;;;6200632;23;20016;-94
2021/05/24 18:41:24;;;;;;;5.10;2.10;;;21.00;53.10;;;;;;6227934;23;20048;-91
2021/05/24 18:43:54;;;;;;;3.55;1.67;;;21.00;53.30;;;;;;6229151;23;20019;-92
2021/05/24 18:46:30;;;;;;;3.03;1.67;;;20.90;53.50;;;;;;6178361;23;20037;-85
2021/05/24 18:49:16;;;;;;;3.08;1.25;;;20.80;54.10;;;;;;6180334;23;20016;-85
2021/05/24 18:51:44;;;;;;;3.78;1.15;;;20.70;53.90;;;;;;6201083;23;20037;-88
2021/05/24 18:54:12;;;;;;;3.72;1.23;;;20.60;54.10;;;;;;6163601;23;20004;-86
2021/05/24 18:56:42;;;;;;;2.75;1.30;;;20.50;54.60;;;;;;6237721;23;20020;-89
2021/05/24 18:59:14;;;;;;;5.55;1.55;;;20.40;55.10;;;;;;6247496;23;20012;-92
2021/05/24 19:01:44;;;;;;;4.90;1.20;;;20.40;55.10;;;;;;6224219;23;20023;-89
2021/05/24 19:04:28;;;;;;;3.72;1.20;;;20.20;55.70;;;;;;6249232;23;20003;-91
2021/05/24 19:06:56;;;;;;;5.30;1.20;;;20.20;56.50;;;;;;6243304;23;20012;-92
2021/05/24 19:09:26;;;;;;;3.10;1.20;;;20.20;56.40;;;;;;6263026;23;20039;-91
2021/05/24 19:12:01;;;;;;;4.03;1.38;;;20.10;56.60;;;;;;6239447;23;20016;-89
2021/05/24 19:14:39;;;;;;;2.75;1.23;;;19.90;57.20;;;;;;6239319;23;20008;-88
2021/05/24 19:17:14;;;;;;;3.47;1.90;;;19.80;57.90;;;;;;6265077;23;20008;-89
2021/05/24 19:20:00;;;;;;;3.60;1.42;;;19.70;58.20;;;;;;6239585;23;20012;-90
2021/05/24 19:23:05;;;;;;;2.90;1.20;;;19.70;58.50;;;;;;6238195;23;20015;-92
2021/05/24 19:26:01;;;;;;;4.60;1.50;;;19.60;58.70;;;;;;6238414;23;20008;-92
2021/05/24 19:28:52;;;;;;;3.17;1.35;;;19.60;58.90;;;;;;6214637;23;20012;-91
2021/05/24 19:31:31;;;;;;;4.00;1.80;;;19.70;59.10;;;;;;6212079;23;20019;-93
2021/05/24 19:34:09;;;;;;;3.08;1.30;;;19.60;59.60;;;;;;6217699;23;20323;-92
2021/05/24 19:36:42;;;;;;;2.67;1.40;;;19.40;60.20;;;;;;6222756;23;20034;-91
2021/05/24 19:39:19;;;;;;;3.70;1.30;;;19.40;60.40;;;;;;6198827;23;20012;-94
2021/05/24 19:41:49;;;;;;;4.15;1.27;;;19.40;60.70;;;;;;6217189;23;20019;-91
2021/05/24 19:44:19;;;;;;;3.40;1.35;;;19.40;60.60;;;;;;6224566;23;20011;-93
2021/05/24 19:46:56;;;;;;;4.22;1.70;;;19.40;60.90;;;;;;6217331;23;20315;-93
2021/05/24 20:24:05;;;;;;;4.05;0.90;;;19.00;63.20;;;;;;6206990;23;20017;-94
2021/05/24 20:26:39;;;;;;;2.90;1.10;;;19.00;63.70;;;;;;6179931;23;20043;-96
2021/05/24 20:29:07;;;;;;;5.60;1.10;;;18.90;63.00;;;;;;6205235;23;20399;-95
2021/05/24 20:32:02;;;;;;;3.47;1.17;;;18.90;63.60;;;;;;6235177;23;20009;-95
2021/05/24 20:34:29;;;;;;;4.55;0.95;;;18.80;63.50;;;;;;6183029;23;20008;-96
2021/05/24 20:36:57;;;;;;;5.88;1.33;;;18.80;63.50;;;;;;6205212;23;20072;-95
2021/05/24 20:39:25;;;;;;;2.37;0.87;;;18.70;63.60;;;;;;6189065;23;20031;-94
2021/05/24 20:41:54;;;;;;;2.73;1.00;;;18.60;63.10;;;;;;6215097;23;20263;-95
2021/05/24 20:44:22;;;;;;;3.15;1.00;;;18.70;63.00;;;;;;6187340;23;20019;-95
2021/05/24 20:46:50;;;;;;;2.40;1.00;;;18.70;61.70;;;;;;6213616;23;20008;-96
2021/05/24 20:49:19;;;;;;;4.63;0.98;;;18.70;58.50;;;;;;6234956;23;20008;-94
2021/05/24 20:51:47;;;;;;;;;;;18.70;59.90;;;;;;6186464;23;20024;-94
2021/05/24 20:54:15;;;;;;;3.65;0.88;;;18.60;58.80;;;;;;6209432;23;19927;-93
2021/05/24 20:56:59;;;;;;;1.58;0.75;;;18.70;58.10;;;;;;6183582;23;20008;-95
2021/05/24 20:59:31;;;;;;;2.35;0.80;;;18.70;53.90;;;;;;6210022;23;20012;-94
2021/05/24 21:02:01;;;;;;;2.15;0.80;;;18.70;54.70;;;;;;6182730;23;20031;-91
2021/05/24 21:04:31;;;;;;;3.30;0.90;;;18.80;53.10;;;;;;6204799;23;20044;-92
2021/05/24 21:07:00;;;;;;;3.15;1.00;;;18.80;53.20;;;;;;6162641;23;20008;-93
2021/05/24 21:09:28;;;;;;;4.72;1.15;;;18.80;53.20;;;;;;6190351;23;20012;-90
2021/05/24 21:11:56;;;;;;;3.27;1.40;;;18.80;52.10;;;;;;6237245;23;20019;-92
2021/05/24 21:14:25;;;;;;;1.77;0.75;;;18.80;52.60;;;;;;6186791;23;20255;-91
2021/05/24 21:16:53;;;;;;;2.75;1.27;;;18.80;52.20;;;;;;6205327;23;20036;-95
2021/05/24 21:19:28;;;;;;;1.25;0.68;;;18.80;51.40;;;;;;6182613;23;20013;-94
2021/05/24 21:21:55;;;;;;;1.73;0.63;;;18.70;52.50;;;;;;6207166;23;20330;-96
2021/05/24 21:24:28;;;;;;;1.85;0.88;;;18.60;53.20;;;;;;6184691;23;20005;-94
2021/05/24 21:26:57;;;;;;;1.80;0.73;;;18.60;53.10;;;;;;6210824;23;20012;-96
2021/05/24 21:29:25;;;;;;;;;;;18.60;52.20;;;;;;6215311;23;20015;-96
2021/05/24 21:31:52;;;;;;;2.00;0.80;;;18.50;52.10;;;;;;6238678;23;20208;-96
2021/05/24 21:37:09;;;;;;;2.22;0.68;;;18.20;53.80;;;;;;6256714;22;20025;-94
2021/05/24 21:39:37;;;;;;;3.75;0.93;;;17.90;55.80;;;;;;6228251;22;21155;-90
2021/05/24 21:42:08;;;;;;;5.63;0.98;;;17.60;58.60;;;;;;6241414;23;20034;-95
2021/05/24 21:44:36;;;;;;;2.15;0.75;;;17.60;59.50;;;;;;6238690;23;20362;-96
2021/05/24 21:47:03;;;;;;;3.88;1.08;;;17.50;60.20;;;;;;6263465;23;20233;-95
2021/05/24 21:49:31;;;;;;;4.30;2.10;;;17.40;61.90;;;;;;6263842;23;20008;-96
2021/05/24 21:51:59;;;;;;;6.22;2.08;;;17.30;63.40;;;;;;6267520;22;20012;-96
2021/05/24 21:54:27;;;;;;;6.00;1.00;;;17.20;64.70;;;;;;6266706;22;20008;-91
2021/05/24 21:56:55;;;;;;;1.67;0.75;;;17.00;66.00;;;;;;6159376;23;20018;-92
2021/05/24 21:59:26;;;;;;;2.45;1.00;;;16.80;66.80;;;;;;6230618;22;20036;-93
2021/05/24 22:01:54;;;;;;;3.65;0.88;;;16.80;67.90;;;;;;6235132;22;20032;-94
2021/05/24 22:04:22;;;;;;;3.60;0.82;;;16.70;68.80;;;;;;6245021;23;20012;-96
2021/05/24 22:06:51;;;;;;;1.83;0.90;;;16.50;71.00;;;;;;6246394;22;20001;-92
2021/05/24 22:09:20;;;;;;;;;;;16.40;72.10;;;;;;6232754;22;20019;-95
2021/05/24 22:11:47;;;;;;;2.67;0.90;;;16.30;73.10;;;;;;6178964;22;19931;-94
2021/05/24 22:14:16;;;;;;;3.30;0.88;;;16.10;74.20;;;;;;6182922;23;20033;-90
2021/05/24 22:16:45;;;;;;;2.35;1.10;;;16.20;75.10;;;;;;6217174;23;20005;-94
2021/05/24 22:19:13;;;;;;;4.20;0.90;;;16.10;75.80;;;;;;6216597;23;20009;-94
2021/05/24 22:21:42;;;;;;;5.40;1.33;;;16.10;77.10;;;;;;6191561;23;20008;-96
2021/05/24 22:24:10;;;;;;;2.60;0.70;;;16.00;79.90;;;;;;6208613;23;20047;-96
2021/05/24 22:26:38;;;;;;;5.05;1.10;;;15.80;86.80;;;;;;6180922;23;20020;-96